Terminal Aerodrome Forecast
Issued by NWS

Home | Current Version | Previous Version | Text Only | Print | Product List | Glossary On
Versions: 1 2 3 4 5 6 7 8 9 10 11 12 13 14 15 16 17 18 19 20 21 22 23 24
000
FTUS42 KTBW 221739
TAFLAL
TAF
KLAL 221739Z 2218/2318 09010G15KT P6SM VCTS SCT030CB BKN250
     FM230000 08008KT P6SM FEW030 SCT090
     FM231500 10007KT P6SM SCT030 SCT100=

USA.gov is the U.S. government's official web portal to all federal, state and local government web resources and services.